sensor_id;sensor_type;location;lat;lon;timestamp;pressure;altitude;pressure_sealevel;temperature;humidity
29467;BME280;60968;37.490;-122.288;2023-05-22T00:00:58;98586.13;;;19.75;70.90
29467;BME280;60968;37.490;-122.288;2023-05-22T00:03:58;98581.75;;;19.59;71.09
29467;BME280;60968;37.490;-122.288;2023-05-22T00:06:59;98591.53;;;18.95;72.98
29467;BME280;60968;37.490;-122.288;2023-05-22T00:10:00;98589.38;;;18.52;75.19
29467;BME280;60968;37.490;-122.288;2023-05-22T00:13:01;98591.44;;;18.29;76.13
29467;BME280;60968;37.490;-122.288;2023-05-22T00:16:02;98594.59;;;18.20;76.27
29467;BME280;60968;37.490;-122.288;2023-05-22T00:19:02;98589.63;;;18.14;76.50
29467;BME280;60968;37.490;-122.288;2023-05-22T00:22:04;98592.88;;;18.19;75.21
29467;BME280;60968;37.490;-122.288;2023-05-22T00:25:06;98584.50;;;18.11;75.35
29467;BME280;60968;37.490;-122.288;2023-05-22T00:28:07;98596.38;;;18.02;75.12
29467;BME280;60968;37.490;-122.288;2023-05-22T00:31:08;98590.47;;;18.14;74.17
29467;BME280;60968;37.490;-122.288;2023-05-22T00:34:09;98587.25;;;18.43;73.51
29467;BME280;60968;37.490;-122.288;2023-05-22T00:37:09;98589.81;;;18.60;72.92
29467;BME280;60968;37.490;-122.288;2023-05-22T00:40:11;98590.44;;;18.65;72.71
29467;BME280;60968;37.490;-122.288;2023-05-22T00:43:13;98592.19;;;18.49;72.27
29467;BME280;60968;37.490;-122.288;2023-05-22T00:46:13;98588.41;;;18.71;72.58
29467;BME280;60968;37.490;-122.288;2023-05-22T00:49:14;98586.81;;;19.00;71.39
29467;BME280;60968;37.490;-122.288;2023-05-22T00:52:15;98584.19;;;19.16;71.83
29467;BME280;60968;37.490;-122.288;2023-05-22T00:55:18;98597.31;;;19.17;70.50
29467;BME280;60968;37.490;-122.288;2023-05-22T00:58:19;98595.81;;;18.80;69.43
29467;BME280;60968;37.490;-122.288;2023-05-22T01:01:20;98593.97;;;18.48;70.57
29467;BME280;60968;37.490;-122.288;2023-05-22T01:04:21;98595.41;;;18.38;71.25
29467;BME280;60968;37.490;-122.288;2023-05-22T01:07:23;98604.34;;;18.18;71.34
29467;BME280;60968;37.490;-122.288;2023-05-22T01:10:24;98600.41;;;18.09;72.18
29467;BME280;60968;37.490;-122.288;2023-05-22T01:13:38;98598.00;;;18.05;72.44
29467;BME280;60968;37.490;-122.288;2023-05-22T01:16:51;98600.03;;;17.99;72.20
29467;BME280;60968;37.490;-122.288;2023-05-22T01:28:00;98602.03;;;17.94;71.75
29467;BME280;60968;37.490;-122.288;2023-05-22T01:31:04;98588.78;;;17.96;70.89
29467;BME280;60968;37.490;-122.288;2023-05-22T01:34:12;98600.00;;;17.82;71.16
29467;BME280;60968;37.490;-122.288;2023-05-22T01:37:14;98604.16;;;17.69;72.61
29467;BME280;60968;37.490;-122.288;2023-05-22T01:40:15;98603.34;;;17.31;73.72
29467;BME280;60968;37.490;-122.288;2023-05-22T01:43:17;98609.69;;;17.08;75.62
29467;BME280;60968;37.490;-122.288;2023-05-22T01:46:19;98604.44;;;17.08;75.64
29467;BME280;60968;37.490;-122.288;2023-05-22T01:49:20;98612.91;;;17.15;74.42
29467;BME280;60968;37.490;-122.288;2023-05-22T01:59:08;98614.78;;;17.67;71.74
29467;BME280;60968;37.490;-122.288;2023-05-22T02:02:10;98615.38;;;17.91;69.34
29467;BME280;60968;37.490;-122.288;2023-05-22T02:05:15;98615.22;;;18.12;70.21
29467;BME280;60968;37.490;-122.288;2023-05-22T02:08:19;98614.34;;;18.11;71.70
29467;BME280;60968;37.490;-122.288;2023-05-22T02:11:22;98607.69;;;17.87;74.79
29467;BME280;60968;37.490;-122.288;2023-05-22T02:14:24;98606.81;;;17.69;77.28
29467;BME280;60968;37.490;-122.288;2023-05-22T02:17:26;98608.13;;;17.60;78.24
29467;BME280;60968;37.490;-122.288;2023-05-22T02:20:28;98606.34;;;17.60;78.74
29467;BME280;60968;37.490;-122.288;2023-05-22T02:23:28;98605.56;;;17.76;77.61
29467;BME280;60968;37.490;-122.288;2023-05-22T02:26:29;98606.94;;;18.02;77.12
29467;BME280;60968;37.490;-122.288;2023-05-22T02:29:30;98600.88;;;18.17;76.50
29467;BME280;60968;37.490;-122.288;2023-05-22T02:32:31;98608.56;;;18.05;76.19
29467;BME280;60968;37.490;-122.288;2023-05-22T02:35:32;98604.66;;;17.94;77.56
29467;BME280;60968;37.490;-122.288;2023-05-22T02:38:33;98613.38;;;17.96;77.87
29467;BME280;60968;37.490;-122.288;2023-05-22T02:41:33;98615.91;;;17.98;77.64
29467;BME280;60968;37.490;-122.288;2023-05-22T02:44:34;98613.31;;;17.61;80.09
29467;BME280;60968;37.490;-122.288;2023-05-22T02:47:35;98620.47;;;17.40;84.66
29467;BME280;60968;37.490;-122.288;2023-05-22T02:50:36;98619.75;;;17.37;85.76
29467;BME280;60968;37.490;-122.288;2023-05-22T02:53:37;98627.81;;;17.34;85.79
29467;BME280;60968;37.490;-122.288;2023-05-22T02:56:37;98622.84;;;17.27;85.27
29467;BME280;60968;37.490;-122.288;2023-05-22T02:59:38;98615.47;;;17.17;86.30
29467;BME280;60968;37.490;-122.288;2023-05-22T03:02:39;98614.28;;;17.05;87.33
29467;BME280;60968;37.490;-122.288;2023-05-22T03:05:40;98619.72;;;17.00;87.50
29467;BME280;60968;37.490;-122.288;2023-05-22T03:08:41;98622.91;;;16.69;87.55
29467;BME280;60968;37.490;-122.288;2023-05-22T03:11:41;98621.25;;;16.26;88.93
29467;BME280;60968;37.490;-122.288;2023-05-22T03:14:43;98621.66;;;15.97;91.11
29467;BME280;60968;37.490;-122.288;2023-05-22T03:17:44;98620.28;;;15.66;93.68
29467;BME280;60968;37.490;-122.288;2023-05-22T03:20:45;98625.69;;;15.61;95.40
29467;BME280;60968;37.490;-122.288;2023-05-22T03:23:46;98624.56;;;15.68;97.13
29467;BME280;60968;37.490;-122.288;2023-05-22T03:26:47;98623.94;;;15.61;97.90
29467;BME280;60968;37.490;-122.288;2023-05-22T03:29:47;98624.19;;;15.55;98.46
29467;BME280;60968;37.490;-122.288;2023-05-22T03:32:48;98621.56;;;15.55;99.27
29467;BME280;60968;37.490;-122.288;2023-05-22T03:35:49;98620.44;;;15.61;99.49
29467;BME280;60968;37.490;-122.288;2023-05-22T03:38:51;98609.84;;;15.64;99.29
29467;BME280;60968;37.490;-122.288;2023-05-22T03:41:51;98609.94;;;15.61;99.59
29467;BME280;60968;37.490;-122.288;2023-05-22T03:44:52;98608.50;;;15.54;100.00
29467;BME280;60968;37.490;-122.288;2023-05-22T03:47:53;98613.41;;;15.41;100.00
29467;BME280;60968;37.490;-122.288;2023-05-22T03:50:54;98616.22;;;15.36;100.00
29467;BME280;60968;37.490;-122.288;2023-05-22T03:53:55;98618.81;;;15.14;100.00
29467;BME280;60968;37.490;-122.288;2023-05-22T03:56:56;98619.06;;;15.08;100.00
29467;BME280;60968;37.490;-122.288;2023-05-22T03:59:56;98617.41;;;15.05;100.00
29467;BME280;60968;37.490;-122.288;2023-05-22T04:02:57;98618.50;;;15.00;100.00
29467;BME280;60968;37.490;-122.288;2023-05-22T04:05:58;98620.16;;;15.02;100.00
29467;BME280;60968;37.490;-122.288;2023-05-22T04:08:59;98619.28;;;15.02;100.00
29467;BME280;60968;37.490;-122.288;2023-05-22T04:12:01;98617.81;;;14.95;100.00
29467;BME280;60968;37.490;-122.288;2023-05-22T04:15:02;98612.81;;;14.88;100.00
29467;BME280;60968;37.490;-122.288;2023-05-22T04:18:03;98612.13;;;14.83;100.00
29467;BME280;60968;37.490;-122.288;2023-05-22T04:21:04;98637.22;;;14.90;100.00
29467;BME280;60968;37.490;-122.288;2023-05-22T04:24:05;98640.28;;;14.54;100.00
29467;BME280;60968;37.490;-122.288;2023-05-22T04:27:06;98650.91;;;14.24;100.00
29467;BME280;60968;37.490;-122.288;2023-05-22T04:30:07;98646.31;;;14.06;100.00
29467;BME280;60968;37.490;-122.288;2023-05-22T04:33:08;98646.47;;;14.01;100.00
29467;BME280;60968;37.490;-122.288;2023-05-22T04:36:09;98647.75;;;13.89;100.00
29467;BME280;60968;37.490;-122.288;2023-05-22T04:39:09;98655.06;;;13.80;100.00
29467;BME280;60968;37.490;-122.288;2023-05-22T04:42:14;98655.09;;;13.78;100.00
29467;BME280;60968;37.490;-122.288;2023-05-22T04:45:15;98656.16;;;13.72;100.00
29467;BME280;60968;37.490;-122.288;2023-05-22T04:48:16;98654.78;;;13.61;100.00
29467;BME280;60968;37.490;-122.288;2023-05-22T04:51:16;98643.53;;;13.59;100.00
29467;BME280;60968;37.490;-122.288;2023-05-22T04:54:17;98653.69;;;13.68;100.00
29467;BME280;60968;37.490;-122.288;2023-05-22T04:57:18;98655.50;;;13.66;100.00
29467;BME280;60968;37.490;-122.288;2023-05-22T05:00:19;98667.09;;;13.59;100.00
29467;BME280;60968;37.490;-122.288;2023-05-22T05:03:20;98670.50;;;13.61;100.00
29467;BME280;60968;37.490;-122.288;2023-05-22T05:06:21;98668.84;;;13.58;100.00
29467;BME280;60968;37.490;-122.288;2023-05-22T05:09:23;98669.16;;;13.49;100.00
29467;BME280;60968;37.490;-122.288;2023-05-22T05:12:24;98669.03;;;13.52;100.00
29467;BME280;60968;37.490;-122.288;2023-05-22T05:15:24;98667.47;;;13.46;100.00
29467;BME280;60968;37.490;-122.288;2023-05-22T05:18:25;98665.66;;;13.48;100.00
29467;BME280;60968;37.490;-122.288;2023-05-22T05:21:26;98662.84;;;13.54;100.00
29467;BME280;60968;37.490;-122.288;2023-05-22T05:24:27;98653.03;;;13.61;100.00
29467;BME280;60968;37.490;-122.288;2023-05-22T05:27:28;98645.31;;;13.57;100.00
29467;BME280;60968;37.490;-122.288;2023-05-22T05:30:29;98638.69;;;13.46;100.00
29467;BME280;60968;37.490;-122.288;2023-05-22T05:33:29;98631.16;;;13.35;100.00
29467;BME280;60968;37.490;-122.288;2023-05-22T05:36:30;98629.66;;;13.27;100.00
29467;BME280;60968;37.490;-122.288;2023-05-22T05:39:31;98626.53;;;13.15;100.00
29467;BME280;60968;37.490;-122.288;2023-05-22T05:42:32;98631.03;;;13.10;100.00
29467;BME280;60968;37.490;-122.288;2023-05-22T05:45:33;98633.75;;;13.07;100.00
29467;BME280;60968;37.490;-122.288;2023-05-22T05:48:34;98636.25;;;13.10;100.00
29467;BME280;60968;37.490;-122.288;2023-05-22T05:51:35;98635.53;;;13.07;100.00
29467;BME280;60968;37.490;-122.288;2023-05-22T05:54:36;98633.13;;;12.99;100.00
29467;BME280;60968;37.490;-122.288;2023-05-22T05:57:38;98632.44;;;12.92;100.00
29467;BME280;60968;37.490;-122.288;2023-05-22T06:00:39;98633.38;;;12.90;100.00
29467;BME280;60968;37.490;-122.288;2023-05-22T06:03:40;98630.69;;;12.93;100.00
29467;BME280;60968;37.490;-122.288;2023-05-22T06:06:41;98628.03;;;12.94;100.00
29467;BME280;60968;37.490;-122.288;2023-05-22T06:09:42;98623.66;;;12.95;100.00
29467;BME280;60968;37.490;-122.288;2023-05-22T06:12:42;98635.00;;;12.94;100.00
29467;BME280;60968;37.490;-122.288;2023-05-22T06:15:43;98637.47;;;13.00;100.00
29467;BME280;60968;37.490;-122.288;2023-05-22T06:18:45;98636.81;;;12.92;100.00
29467;BME280;60968;37.490;-122.288;2023-05-22T06:21:46;98629.28;;;12.81;100.00
29467;BME280;60968;37.490;-122.288;2023-05-22T06:24:47;98640.09;;;12.68;100.00
29467;BME280;60968;37.490;-122.288;2023-05-22T06:27:48;98635.16;;;12.59;100.00
29467;BME280;60968;37.490;-122.288;2023-05-22T06:30:49;98631.94;;;12.49;100.00
29467;BME280;60968;37.490;-122.288;2023-05-22T06:33:50;98625.88;;;12.49;100.00
29467;BME280;60968;37.490;-122.288;2023-05-22T06:36:50;98622.50;;;12.44;100.00
29467;BME280;60968;37.490;-122.288;2023-05-22T06:39:51;98626.06;;;12.41;100.00
29467;BME280;60968;37.490;-122.288;2023-05-22T06:42:52;98619.34;;;12.32;100.00
29467;BME280;60968;37.490;-122.288;2023-05-22T06:45:53;98622.09;;;12.26;100.00
29467;BME280;60968;37.490;-122.288;2023-05-22T06:48:54;98618.78;;;12.21;100.00
29467;BME280;60968;37.490;-122.288;2023-05-22T06:51:55;98612.00;;;12.14;100.00
29467;BME280;60968;37.490;-122.288;2023-05-22T06:54:55;98605.81;;;12.16;100.00
29467;BME280;60968;37.490;-122.288;2023-05-22T06:57:56;98610.06;;;12.21;100.00
29467;BME280;60968;37.490;-122.288;2023-05-22T07:00:57;98605.59;;;12.26;100.00
29467;BME280;60968;37.490;-122.288;2023-05-22T07:03:58;98605.78;;;12.20;100.00
29467;BME280;60968;37.490;-122.288;2023-05-22T07:06:59;98606.84;;;12.12;100.00
29467;BME280;60968;37.490;-122.288;2023-05-22T07:10:00;98599.06;;;12.09;100.00
29467;BME280;60968;37.490;-122.288;2023-05-22T07:13:01;98606.97;;;12.06;100.00
29467;BME280;60968;37.490;-122.288;2023-05-22T07:16:02;98606.00;;;12.10;100.00
29467;BME280;60968;37.490;-122.288;2023-05-22T07:19:03;98607.41;;;12.24;100.00
29467;BME280;60968;37.490;-122.288;2023-05-22T07:22:04;98612.69;;;12.21;100.00
29467;BME280;60968;37.490;-122.288;2023-05-22T07:25:05;98604.97;;;12.16;100.00
29467;BME280;60968;37.490;-122.288;2023-05-22T07:28:06;98611.13;;;12.13;100.00
29467;BME280;60968;37.490;-122.288;2023-05-22T07:31:07;98615.03;;;11.98;100.00
29467;BME280;60968;37.490;-122.288;2023-05-22T07:34:08;98606.84;;;11.76;100.00
29467;BME280;60968;37.490;-122.288;2023-05-22T07:37:10;98602.34;;;11.83;100.00
29467;BME280;60968;37.490;-122.288;2023-05-22T07:40:11;98609.44;;;11.78;100.00
29467;BME280;60968;37.490;-122.288;2023-05-22T07:43:12;98606.16;;;11.70;100.00
29467;BME280;60968;37.490;-122.288;2023-05-22T07:46:13;98609.13;;;11.54;100.00
29467;BME280;60968;37.490;-122.288;2023-05-22T07:49:14;98616.31;;;11.44;100.00
29467;BME280;60968;37.490;-122.288;2023-05-22T07:52:15;98605.16;;;11.39;100.00
29467;BME280;60968;37.490;-122.288;2023-05-22T07:55:15;98612.13;;;11.39;100.00
29467;BME280;60968;37.490;-122.288;2023-05-22T07:58:16;98600.84;;;11.38;100.00
29467;BME280;60968;37.490;-122.288;2023-05-22T08:01:17;98593.00;;;11.38;100.00
29467;BME280;60968;37.490;-122.288;2023-05-22T08:04:18;98597.03;;;11.52;100.00
29467;BME280;60968;37.490;-122.288;2023-05-22T08:07:19;98590.63;;;11.65;100.00
29467;BME280;60968;37.490;-122.288;2023-05-22T08:10:20;98594.66;;;11.77;100.00
29467;BME280;60968;37.490;-122.288;2023-05-22T08:13:21;98595.44;;;11.80;100.00
29467;BME280;60968;37.490;-122.288;2023-05-22T08:16:22;98601.56;;;11.79;100.00
29467;BME280;60968;37.490;-122.288;2023-05-22T08:19:23;98595.50;;;11.79;100.00
29467;BME280;60968;37.490;-122.288;2023-05-22T08:22:24;98604.19;;;11.78;100.00
29467;BME280;60968;37.490;-122.288;2023-05-22T08:25:25;98599.91;;;11.75;100.00
29467;BME280;60968;37.490;-122.288;2023-05-22T08:28:26;98604.41;;;11.70;100.00
29467;BME280;60968;37.490;-122.288;2023-05-22T08:31:26;98606.19;;;11.68;100.00
29467;BME280;60968;37.490;-122.288;2023-05-22T08:34:27;98607.81;;;11.72;100.00
29467;BME280;60968;37.490;-122.288;2023-05-22T08:37:28;98596.59;;;11.70;100.00
29467;BME280;60968;37.490;-122.288;2023-05-22T08:40:36;98584.56;;;11.64;100.00
29467;BME280;60968;37.490;-122.288;2023-05-22T08:43:37;98582.88;;;11.62;100.00
29467;BME280;60968;37.490;-122.288;2023-05-22T08:46:40;98589.94;;;11.57;100.00
29467;BME280;60968;37.490;-122.288;2023-05-22T08:49:41;98591.75;;;11.55;100.00
29467;BME280;60968;37.490;-122.288;2023-05-22T08:52:54;98592.69;;;11.52;100.00
29467;BME280;60968;37.490;-122.288;2023-05-22T08:55:55;98588.47;;;11.46;100.00
29467;BME280;60968;37.490;-122.288;2023-05-22T08:58:57;98591.91;;;11.47;100.00
29467;BME280;60968;37.490;-122.288;2023-05-22T09:01:59;98590.16;;;11.47;100.00
29467;BME280;60968;37.490;-122.288;2023-05-22T09:05:00;98589.34;;;11.45;100.00
29467;BME280;60968;37.490;-122.288;2023-05-22T09:08:02;98591.78;;;11.52;100.00
29467;BME280;60968;37.490;-122.288;2023-05-22T09:11:03;98590.03;;;11.54;100.00
29467;BME280;60968;37.490;-122.288;2023-05-22T09:14:10;98595.25;;;11.54;100.00
29467;BME280;60968;37.490;-122.288;2023-05-22T09:17:14;98585.56;;;11.57;100.00
29467;BME280;60968;37.490;-122.288;2023-05-22T09:20:15;98586.41;;;11.59;100.00
29467;BME280;60968;37.490;-122.288;2023-05-22T09:23:16;98584.63;;;11.60;100.00
29467;BME280;60968;37.490;-122.288;2023-05-22T09:26:16;98591.66;;;11.58;100.00
29467;BME280;60968;37.490;-122.288;2023-05-22T09:29:17;98591.53;;;11.62;100.00
29467;BME280;60968;37.490;-122.288;2023-05-22T09:32:18;98591.50;;;11.64;100.00
29467;BME280;60968;37.490;-122.288;2023-05-22T09:35:19;98577.78;;;11.56;100.00
29467;BME280;60968;37.490;-122.288;2023-05-22T09:38:22;98585.91;;;11.43;100.00
29467;BME280;60968;37.490;-122.288;2023-05-22T09:41:27;98581.81;;;11.33;100.00
29467;BME280;60968;37.490;-122.288;2023-05-22T09:44:28;98577.59;;;11.27;100.00
29467;BME280;60968;37.490;-122.288;2023-05-22T09:47:30;98573.56;;;11.15;100.00
29467;BME280;60968;37.490;-122.288;2023-05-22T09:50:31;98572.78;;;11.10;100.00
29467;BME280;60968;37.490;-122.288;2023-05-22T09:53:32;98565.16;;;11.03;100.00
29467;BME280;60968;37.490;-122.288;2023-05-22T09:56:35;98569.63;;;10.97;100.00
29467;BME280;60968;37.490;-122.288;2023-05-22T09:59:37;98566.34;;;10.88;100.00
29467;BME280;60968;37.490;-122.288;2023-05-22T10:02:43;98564.59;;;10.88;100.00
29467;BME280;60968;37.490;-122.288;2023-05-22T10:05:50;98566.41;;;10.86;100.00
29467;BME280;60968;37.490;-122.288;2023-05-22T10:08:58;98553.41;;;10.85;100.00
29467;BME280;60968;37.490;-122.288;2023-05-22T10:12:05;98553.41;;;10.85;100.00
29467;BME280;60968;37.490;-122.288;2023-05-22T10:15:09;98546.63;;;10.77;100.00
29467;BME280;60968;37.490;-122.288;2023-05-22T10:18:10;98548.50;;;10.71;100.00
29467;BME280;60968;37.490;-122.288;2023-05-22T10:21:12;98544.28;;;10.65;100.00
29467;BME280;60968;37.490;-122.288;2023-05-22T10:24:13;98535.63;;;10.63;100.00
29467;BME280;60968;37.490;-122.288;2023-05-22T10:27:14;98532.16;;;10.62;100.00
29467;BME280;60968;37.490;-122.288;2023-05-22T10:33:43;98532.25;;;10.59;100.00
29467;BME280;60968;37.490;-122.288;2023-05-22T10:40:12;98529.88;;;10.49;100.00
29467;BME280;60968;37.490;-122.288;2023-05-22T10:43:15;98520.28;;;10.49;100.00
29467;BME280;60968;37.490;-122.288;2023-05-22T10:46:17;98512.56;;;10.46;100.00
29467;BME280;60968;37.490;-122.288;2023-05-22T10:49:22;98515.34;;;10.38;100.00
29467;BME280;60968;37.490;-122.288;2023-05-22T10:52:23;98516.06;;;10.43;100.00
29467;BME280;60968;37.490;-122.288;2023-05-22T10:55:25;98523.84;;;10.46;100.00
29467;BME280;60968;37.490;-122.288;2023-05-22T10:58:54;98516.75;;;10.52;100.00
29467;BME280;60968;37.490;-122.288;2023-05-22T11:01:59;98517.41;;;10.61;100.00
29467;BME280;60968;37.490;-122.288;2023-05-22T11:11:30;98510.19;;;10.76;100.00
29467;BME280;60968;37.490;-122.288;2023-05-22T11:14:31;98511.72;;;10.85;100.00
29467;BME280;60968;37.490;-122.288;2023-05-22T11:20:41;98503.09;;;10.81;100.00
29467;BME280;60968;37.490;-122.288;2023-05-22T11:23:41;98501.19;;;10.88;100.00
29467;BME280;60968;37.490;-122.288;2023-05-22T11:26:43;98504.03;;;10.77;100.00
29467;BME280;60968;37.490;-122.288;2023-05-22T11:30:02;98496.50;;;10.66;100.00
29467;BME280;60968;37.490;-122.288;2023-05-22T11:33:04;98513.59;;;10.78;100.00
29467;BME280;60968;37.490;-122.288;2023-05-22T11:36:07;98517.81;;;10.84;100.00
29467;BME280;60968;37.490;-122.288;2023-05-22T11:39:08;98514.34;;;10.83;100.00
29467;BME280;60968;37.490;-122.288;2023-05-22T11:42:16;98512.72;;;10.79;100.00
29467;BME280;60968;37.490;-122.288;2023-05-22T11:45:17;98506.53;;;10.83;100.00
29467;BME280;60968;37.490;-122.288;2023-05-22T11:48:19;98501.28;;;10.85;100.00
29467;BME280;60968;37.490;-122.288;2023-05-22T11:51:21;98496.03;;;10.86;100.00
29467;BME280;60968;37.490;-122.288;2023-05-22T11:54:22;98490.84;;;10.85;100.00
29467;BME280;60968;37.490;-122.288;2023-05-22T11:57:23;98494.13;;;10.93;100.00
29467;BME280;60968;37.490;-122.288;2023-05-22T12:00:23;98495.88;;;10.92;100.00
29467;BME280;60968;37.490;-122.288;2023-05-22T12:03:24;98496.84;;;10.88;100.00
29467;BME280;60968;37.490;-122.288;2023-05-22T12:06:25;98503.00;;;10.84;100.00
29467;BME280;60968;37.490;-122.288;2023-05-22T12:09:26;98497.75;;;10.87;100.00
29467;BME280;60968;37.490;-122.288;2023-05-22T12:12:28;98502.94;;;10.89;100.00
29467;BME280;60968;37.490;-122.288;2023-05-22T12:15:31;98504.63;;;10.90;100.00
29467;BME280;60968;37.490;-122.288;2023-05-22T12:18:35;98495.84;;;10.94;100.00
29467;BME280;60968;37.490;-122.288;2023-05-22T12:21:39;98493.25;;;10.92;100.00
29467;BME280;60968;37.490;-122.288;2023-05-22T12:24:44;98501.19;;;10.88;100.00
29467;BME280;60968;37.490;-122.288;2023-05-22T12:27:45;98497.16;;;10.74;100.00
29467;BME280;60968;37.490;-122.288;2023-05-22T12:30:51;98510.25;;;10.71;100.00
29467;BME280;60968;37.490;-122.288;2023-05-22T12:33:56;98510.19;;;10.74;100.00
29467;BME280;60968;37.490;-122.288;2023-05-22T12:36:58;98520.59;;;10.74;100.00
29467;BME280;60968;37.490;-122.288;2023-05-22T12:40:02;98522.47;;;10.69;100.00
29467;BME280;60968;37.490;-122.288;2023-05-22T12:43:03;98528.91;;;10.53;100.00
29467;BME280;60968;37.490;-122.288;2023-05-22T12:46:03;98520.28;;;10.49;100.00
29467;BME280;60968;37.490;-122.288;2023-05-22T12:49:06;98522.81;;;10.54;100.00
29467;BME280;60968;37.490;-122.288;2023-05-22T12:52:07;98523.47;;;10.63;100.00
29467;BME280;60968;37.490;-122.288;2023-05-22T12:55:10;98527.56;;;10.74;100.00
29467;BME280;60968;37.490;-122.288;2023-05-22T12:58:11;98531.94;;;10.73;100.00
29467;BME280;60968;37.490;-122.288;2023-05-22T13:01:11;98527.47;;;10.78;100.00
29467;BME280;60968;37.490;-122.288;2023-05-22T13:04:12;98524.91;;;10.77;100.00
29467;BME280;60968;37.490;-122.288;2023-05-22T13:07:13;98531.03;;;10.74;100.00
29467;BME280;60968;37.490;-122.288;2023-05-22T13:10:15;98532.03;;;10.69;100.00
29467;BME280;60968;37.490;-122.288;2023-05-22T13:13:16;98529.41;;;10.69;100.00
29467;BME280;60968;37.490;-122.288;2023-05-22T13:16:18;98525.16;;;10.66;100.00
29467;BME280;60968;37.490;-122.288;2023-05-22T13:19:19;98533.22;;;10.54;100.00
29467;BME280;60968;37.490;-122.288;2023-05-22T13:22:21;98533.50;;;10.41;100.00
29467;BME280;60968;37.490;-122.288;2023-05-22T13:25:22;98533.63;;;10.35;100.00
29467;BME280;60968;37.490;-122.288;2023-05-22T13:28:23;98526.56;;;10.40;100.00
29467;BME280;60968;37.490;-122.288;2023-05-22T13:31:24;98525.66;;;10.43;100.00
29467;BME280;60968;37.490;-122.288;2023-05-22T13:34:24;98522.09;;;10.47;100.00
29467;BME280;60968;37.490;-122.288;2023-05-22T13:37:25;98521.28;;;10.43;100.00
29467;BME280;60968;37.490;-122.288;2023-05-22T13:40:26;98516.06;;;10.45;100.00
29467;BME280;60968;37.490;-122.288;2023-05-22T13:43:27;98515.03;;;10.52;100.00
29467;BME280;60968;37.490;-122.288;2023-05-22T13:46:28;98517.59;;;10.54;100.00
29467;BME280;60968;37.490;-122.288;2023-05-22T13:49:29;98526.19;;;10.57;100.00
29467;BME280;60968;37.490;-122.288;2023-05-22T13:52:30;98527.78;;;10.64;100.00
29467;BME280;60968;37.490;-122.288;2023-05-22T13:55:31;98533.63;;;10.74;100.00
29467;BME280;60968;37.490;-122.288;2023-05-22T13:58:37;98543.91;;;10.82;100.00
29467;BME280;60968;37.490;-122.288;2023-05-22T14:01:38;98546.31;;;10.90;100.00
29467;BME280;60968;37.490;-122.288;2023-05-22T14:04:39;98546.22;;;10.94;100.00
29467;BME280;60968;37.490;-122.288;2023-05-22T14:07:40;98540.03;;;11.00;100.00
29467;BME280;60968;37.490;-122.288;2023-05-22T14:10:41;98538.94;;;11.09;100.00
29467;BME280;60968;37.490;-122.288;2023-05-22T14:13:42;98529.31;;;11.12;100.00
29467;BME280;60968;37.490;-122.288;2023-05-22T14:16:43;98535.31;;;11.14;100.00
29467;BME280;60968;37.490;-122.288;2023-05-22T14:19:49;98533.19;;;11.30;100.00
29467;BME280;60968;37.490;-122.288;2023-05-22T14:22:53;98534.75;;;11.38;100.00
29467;BME280;60968;37.490;-122.288;2023-05-22T14:25:55;98538.22;;;11.38;100.00
29467;BME280;60968;37.490;-122.288;2023-05-22T14:28:56;98529.44;;;11.42;100.00
29467;BME280;60968;37.490;-122.288;2023-05-22T14:32:05;98541.16;;;11.59;100.00
29467;BME280;60968;37.490;-122.288;2023-05-22T14:35:06;98532.50;;;11.58;100.00
29467;BME280;60968;37.490;-122.288;2023-05-22T14:38:07;98534.06;;;11.65;100.00
29467;BME280;60968;37.490;-122.288;2023-05-22T14:41:08;98541.56;;;11.78;100.00
29467;BME280;60968;37.490;-122.288;2023-05-22T14:44:10;98533.31;;;11.95;100.00
29467;BME280;60968;37.490;-122.288;2023-05-22T14:47:11;98530.69;;;11.95;100.00
29467;BME280;60968;37.490;-122.288;2023-05-22T14:50:12;98527.94;;;12.01;100.00
29467;BME280;60968;37.490;-122.288;2023-05-22T14:53:13;98531.16;;;12.09;100.00
29467;BME280;60968;37.490;-122.288;2023-05-22T14:56:14;98529.91;;;11.90;100.00
29467;BME280;60968;37.490;-122.288;2023-05-22T14:59:15;98530.44;;;12.04;100.00
29467;BME280;60968;37.490;-122.288;2023-05-22T15:02:16;98529.38;;;12.11;100.00
29467;BME280;60968;37.490;-122.288;2023-05-22T15:05:17;98538.56;;;12.25;100.00
29467;BME280;60968;37.490;-122.288;2023-05-22T15:08:18;98536.47;;;12.06;100.00
29467;BME280;60968;37.490;-122.288;2023-05-22T15:11:19;98538.50;;;12.28;100.00
29467;BME280;60968;37.490;-122.288;2023-05-22T15:14:20;98533.56;;;12.17;100.00
29467;BME280;60968;37.490;-122.288;2023-05-22T15:17:23;98536.44;;;12.39;100.00
29467;BME280;60968;37.490;-122.288;2023-05-22T15:20:23;98534.53;;;12.44;100.00
29467;BME280;60968;37.490;-122.288;2023-05-22T15:23:24;98545.59;;;12.52;100.00
29467;BME280;60968;37.490;-122.288;2023-05-22T15:26:25;98534.13;;;12.58;100.00
29467;BME280;60968;37.490;-122.288;2023-05-22T15:29:26;98543.25;;;12.73;100.00
29467;BME280;60968;37.490;-122.288;2023-05-22T15:32:27;98549.69;;;12.91;100.00
29467;BME280;60968;37.490;-122.288;2023-05-22T15:35:28;98547.66;;;13.01;100.00
29467;BME280;60968;37.490;-122.288;2023-05-22T15:38:29;98554.00;;;12.92;100.00
29467;BME280;60968;37.490;-122.288;2023-05-22T15:41:30;98554.78;;;12.96;100.00
29467;BME280;60968;37.490;-122.288;2023-05-22T15:48:15;98558.69;;;13.11;100.00
29467;BME280;60968;37.490;-122.288;2023-05-22T15:51:15;98562.97;;;13.67;100.00